sensor_id;sensor_type;location;lat;lon;timestamp;P1;durP1;ratioP1;P2;durP2;ratioP2
79578;SDS011;69051;52.406;5.280;2023-05-19T00:00:42;11.65;;;4.57;;
79578;SDS011;69051;52.406;5.280;2023-05-19T00:03:15;13.05;;;4.20;;
79578;SDS011;69051;52.406;5.280;2023-05-19T00:05:46;18.00;;;4.65;;
79578;SDS011;69051;52.406;5.280;2023-05-19T00:08:15;17.17;;;4.97;;
79578;SDS011;69051;52.406;5.280;2023-05-19T00:10:42;12.98;;;4.60;;
79578;SDS011;69051;52.406;5.280;2023-05-19T00:13:09;17.38;;;4.60;;
79578;SDS011;69051;52.406;5.280;2023-05-19T00:15:35;11.07;;;3.90;;
79578;SDS011;69051;52.406;5.280;2023-05-19T00:18:02;13.02;;;4.43;;
79578;SDS011;69051;52.406;5.280;2023-05-19T00:20:28;14.43;;;4.15;;
79578;SDS011;69051;52.406;5.280;2023-05-19T00:22:55;9.73;;;4.00;;
79578;SDS011;69051;52.406;5.280;2023-05-19T00:25:22;11.55;;;4.03;;
79578;SDS011;69051;52.406;5.280;2023-05-19T00:27:48;17.48;;;4.38;;
79578;SDS011;69051;52.406;5.280;2023-05-19T00:30:15;15.70;;;5.05;;
79578;SDS011;69051;52.406;5.280;2023-05-19T00:32:41;15.10;;;5.72;;
79578;SDS011;69051;52.406;5.280;2023-05-19T00:35:08;17.90;;;4.50;;
79578;SDS011;69051;52.406;5.280;2023-05-19T00:37:34;15.65;;;4.60;;
79578;SDS011;69051;52.406;5.280;2023-05-19T00:40:01;12.82;;;4.20;;
79578;SDS011;69051;52.406;5.280;2023-05-19T00:42:27;18.77;;;4.70;;
79578;SDS011;69051;52.406;5.280;2023-05-19T00:44:54;17.50;;;4.80;;
79578;SDS011;69051;52.406;5.280;2023-05-19T00:47:20;14.15;;;4.88;;
79578;SDS011;69051;52.406;5.280;2023-05-19T00:49:47;13.98;;;4.85;;
79578;SDS011;69051;52.406;5.280;2023-05-19T00:52:13;13.00;;;4.40;;
79578;SDS011;69051;52.406;5.280;2023-05-19T00:54:40;11.68;;;4.55;;
79578;SDS011;69051;52.406;5.280;2023-05-19T00:57:06;13.77;;;4.25;;
79578;SDS011;69051;52.406;5.280;2023-05-19T00:59:33;14.10;;;4.88;;
79578;SDS011;69051;52.406;5.280;2023-05-19T01:02:00;11.80;;;4.53;;
79578;SDS011;69051;52.406;5.280;2023-05-19T01:04:27;17.67;;;5.95;;
79578;SDS011;69051;52.406;5.280;2023-05-19T01:06:54;14.85;;;4.35;;
79578;SDS011;69051;52.406;5.280;2023-05-19T01:09:21;12.10;;;4.50;;
79578;SDS011;69051;52.406;5.280;2023-05-19T01:11:49;15.23;;;4.57;;
79578;SDS011;69051;52.406;5.280;2023-05-19T01:14:15;12.75;;;4.55;;
79578;SDS011;69051;52.406;5.280;2023-05-19T01:16:44;13.70;;;4.75;;
79578;SDS011;69051;52.406;5.280;2023-05-19T01:19:29;11.32;;;4.50;;
79578;SDS011;69051;52.406;5.280;2023-05-19T01:22:05;12.73;;;4.82;;
79578;SDS011;69051;52.406;5.280;2023-05-19T01:27:41;10.43;;;4.40;;
79578;SDS011;69051;52.406;5.280;2023-05-19T01:30:22;13.63;;;5.03;;
79578;SDS011;69051;52.406;5.280;2023-05-19T01:32:58;18.67;;;4.85;;
79578;SDS011;69051;52.406;5.280;2023-05-19T01:37:55;16.85;;;4.80;;
79578;SDS011;69051;52.406;5.280;2023-05-19T01:40:23;19.83;;;5.38;;
79578;SDS011;69051;52.406;5.280;2023-05-19T01:42:55;16.80;;;5.45;;
79578;SDS011;69051;52.406;5.280;2023-05-19T01:45:24;18.52;;;5.25;;
79578;SDS011;69051;52.406;5.280;2023-05-19T01:47:53;14.88;;;4.32;;
79578;SDS011;69051;52.406;5.280;2023-05-19T01:50:21;17.17;;;5.57;;
79578;SDS011;69051;52.406;5.280;2023-05-19T01:52:48;14.77;;;4.90;;
79578;SDS011;69051;52.406;5.280;2023-05-19T01:55:15;19.75;;;5.13;;
79578;SDS011;69051;52.406;5.280;2023-05-19T02:03:36;14.95;;;5.25;;
79578;SDS011;69051;52.406;5.280;2023-05-19T02:06:29;15.95;;;5.13;;
79578;SDS011;69051;52.406;5.280;2023-05-19T02:09:05;13.15;;;5.18;;
79578;SDS011;69051;52.406;5.280;2023-05-19T02:11:35;21.48;;;6.00;;
79578;SDS011;69051;52.406;5.280;2023-05-19T02:14:19;18.65;;;5.38;;
79578;SDS011;69051;52.406;5.280;2023-05-19T02:16:47;16.90;;;5.00;;
79578;SDS011;69051;52.406;5.280;2023-05-19T02:19:21;11.80;;;5.20;;
79578;SDS011;69051;52.406;5.280;2023-05-19T02:21:52;15.38;;;5.55;;
79578;SDS011;69051;52.406;5.280;2023-05-19T02:24:18;21.73;;;6.03;;
79578;SDS011;69051;52.406;5.280;2023-05-19T02:26:45;14.43;;;4.72;;
79578;SDS011;69051;52.406;5.280;2023-05-19T02:29:11;21.10;;;5.65;;
79578;SDS011;69051;52.406;5.280;2023-05-19T02:31:38;19.23;;;5.78;;
79578;SDS011;69051;52.406;5.280;2023-05-19T02:34:04;17.60;;;5.10;;
79578;SDS011;69051;52.406;5.280;2023-05-19T02:36:32;19.13;;;5.85;;
79578;SDS011;69051;52.406;5.280;2023-05-19T02:39:00;22.38;;;5.80;;
79578;SDS011;69051;52.406;5.280;2023-05-19T02:41:29;14.35;;;5.68;;
79578;SDS011;69051;52.406;5.280;2023-05-19T02:43:56;17.35;;;5.03;;
79578;SDS011;69051;52.406;5.280;2023-05-19T02:46:23;18.52;;;5.25;;
79578;SDS011;69051;52.406;5.280;2023-05-19T02:48:50;17.15;;;5.10;;
79578;SDS011;69051;52.406;5.280;2023-05-19T02:51:17;16.63;;;6.00;;
79578;SDS011;69051;52.406;5.280;2023-05-19T02:53:43;11.48;;;5.45;;
79578;SDS011;69051;52.406;5.280;2023-05-19T02:56:10;21.13;;;5.63;;
79578;SDS011;69051;52.406;5.280;2023-05-19T02:58:36;18.60;;;5.90;;
79578;SDS011;69051;52.406;5.280;2023-05-19T03:01:03;14.52;;;5.43;;
79578;SDS011;69051;52.406;5.280;2023-05-19T03:03:29;17.65;;;5.68;;
79578;SDS011;69051;52.406;5.280;2023-05-19T03:05:56;18.08;;;5.78;;
79578;SDS011;69051;52.406;5.280;2023-05-19T03:08:22;19.35;;;5.88;;
79578;SDS011;69051;52.406;5.280;2023-05-19T03:10:49;14.82;;;5.50;;
79578;SDS011;69051;52.406;5.280;2023-05-19T03:13:15;15.10;;;4.90;;
79578;SDS011;69051;52.406;5.280;2023-05-19T03:15:42;23.17;;;6.75;;
79578;SDS011;69051;52.406;5.280;2023-05-19T03:18:08;18.85;;;6.25;;
79578;SDS011;69051;52.406;5.280;2023-05-19T03:20:35;23.02;;;6.28;;
79578;SDS011;69051;52.406;5.280;2023-05-19T03:23:01;21.33;;;5.82;;
79578;SDS011;69051;52.406;5.280;2023-05-19T03:25:28;14.40;;;5.53;;
79578;SDS011;69051;52.406;5.280;2023-05-19T03:27:55;16.83;;;6.10;;
79578;SDS011;69051;52.406;5.280;2023-05-19T03:30:21;15.27;;;6.20;;
79578;SDS011;69051;52.406;5.280;2023-05-19T03:32:48;19.98;;;5.65;;
79578;SDS011;69051;52.406;5.280;2023-05-19T03:35:14;16.08;;;5.88;;
79578;SDS011;69051;52.406;5.280;2023-05-19T03:37:41;13.55;;;5.82;;
79578;SDS011;69051;52.406;5.280;2023-05-19T03:40:07;20.95;;;6.43;;
79578;SDS011;69051;52.406;5.280;2023-05-19T03:42:34;18.58;;;6.00;;
79578;SDS011;69051;52.406;5.280;2023-05-19T03:45:01;19.85;;;6.40;;
79578;SDS011;69051;52.406;5.280;2023-05-19T03:47:28;15.77;;;5.70;;
79578;SDS011;69051;52.406;5.280;2023-05-19T03:49:56;18.00;;;6.57;;
79578;SDS011;69051;52.406;5.280;2023-05-19T03:52:23;14.38;;;6.28;;
79578;SDS011;69051;52.406;5.280;2023-05-19T03:54:49;23.00;;;7.22;;
79578;SDS011;69051;52.406;5.280;2023-05-19T03:57:16;15.27;;;5.80;;
79578;SDS011;69051;52.406;5.280;2023-05-19T03:59:42;20.83;;;6.30;;
79578;SDS011;69051;52.406;5.280;2023-05-19T04:02:09;17.75;;;6.55;;
79578;SDS011;69051;52.406;5.280;2023-05-19T04:04:35;24.75;;;6.55;;
79578;SDS011;69051;52.406;5.280;2023-05-19T04:07:05;18.52;;;6.70;;
79578;SDS011;69051;52.406;5.280;2023-05-19T04:09:32;21.33;;;7.35;;
79578;SDS011;69051;52.406;5.280;2023-05-19T04:12:00;15.60;;;6.38;;
79578;SDS011;69051;52.406;5.280;2023-05-19T04:14:30;21.27;;;6.53;;
79578;SDS011;69051;52.406;5.280;2023-05-19T04:16:57;19.10;;;6.45;;
79578;SDS011;69051;52.406;5.280;2023-05-19T04:19:23;19.98;;;6.47;;
79578;SDS011;69051;52.406;5.280;2023-05-19T04:21:50;27.58;;;7.50;;
79578;SDS011;69051;52.406;5.280;2023-05-19T04:24:17;20.83;;;7.40;;
79578;SDS011;69051;52.406;5.280;2023-05-19T04:26:43;21.95;;;7.10;;
79578;SDS011;69051;52.406;5.280;2023-05-19T04:29:12;21.63;;;7.30;;
79578;SDS011;69051;52.406;5.280;2023-05-19T04:31:39;23.20;;;7.03;;
79578;SDS011;69051;52.406;5.280;2023-05-19T04:34:06;20.40;;;7.38;;
79578;SDS011;69051;52.406;5.280;2023-05-19T04:36:35;19.90;;;7.05;;
79578;SDS011;69051;52.406;5.280;2023-05-19T04:39:02;16.25;;;6.55;;
79578;SDS011;69051;52.406;5.280;2023-05-19T04:41:32;19.88;;;6.97;;
79578;SDS011;69051;52.406;5.280;2023-05-19T04:43:59;24.80;;;7.85;;
79578;SDS011;69051;52.406;5.280;2023-05-19T04:46:26;23.83;;;7.68;;
79578;SDS011;69051;52.406;5.280;2023-05-19T04:48:55;22.33;;;6.70;;
79578;SDS011;69051;52.406;5.280;2023-05-19T04:51:22;19.10;;;6.78;;
79578;SDS011;69051;52.406;5.280;2023-05-19T04:53:55;23.23;;;8.43;;
79578;SDS011;69051;52.406;5.280;2023-05-19T04:56:22;20.15;;;7.05;;
79578;SDS011;69051;52.406;5.280;2023-05-19T04:58:49;24.52;;;6.85;;
79578;SDS011;69051;52.406;5.280;2023-05-19T05:01:15;22.08;;;7.38;;
79578;SDS011;69051;52.406;5.280;2023-05-19T05:03:42;16.05;;;7.47;;
79578;SDS011;69051;52.406;5.280;2023-05-19T05:06:09;22.27;;;7.47;;
79578;SDS011;69051;52.406;5.280;2023-05-19T05:08:36;23.40;;;7.10;;
79578;SDS011;69051;52.406;5.280;2023-05-19T05:11:05;18.35;;;7.30;;
79578;SDS011;69051;52.406;5.280;2023-05-19T05:13:32;21.35;;;7.43;;
79578;SDS011;69051;52.406;5.280;2023-05-19T05:15:59;22.83;;;7.78;;
79578;SDS011;69051;52.406;5.280;2023-05-19T05:18:25;24.80;;;8.52;;
79578;SDS011;69051;52.406;5.280;2023-05-19T05:20:52;23.58;;;8.02;;
79578;SDS011;69051;52.406;5.280;2023-05-19T05:23:19;22.15;;;7.63;;
79578;SDS011;69051;52.406;5.280;2023-05-19T05:25:46;26.55;;;7.43;;
79578;SDS011;69051;52.406;5.280;2023-05-19T05:28:13;23.52;;;8.68;;
79578;SDS011;69051;52.406;5.280;2023-05-19T05:30:39;29.77;;;9.13;;
79578;SDS011;69051;52.406;5.280;2023-05-19T05:33:07;22.75;;;8.40;;
79578;SDS011;69051;52.406;5.280;2023-05-19T05:35:34;20.52;;;8.35;;
79578;SDS011;69051;52.406;5.280;2023-05-19T05:38:01;20.35;;;7.95;;
79578;SDS011;69051;52.406;5.280;2023-05-19T05:40:28;19.38;;;7.90;;
79578;SDS011;69051;52.406;5.280;2023-05-19T05:42:55;22.13;;;8.13;;
79578;SDS011;69051;52.406;5.280;2023-05-19T05:45:21;17.67;;;9.10;;
79578;SDS011;69051;52.406;5.280;2023-05-19T05:47:48;25.35;;;8.30;;
79578;SDS011;69051;52.406;5.280;2023-05-19T05:50:15;25.48;;;8.32;;
79578;SDS011;69051;52.406;5.280;2023-05-19T05:52:45;24.38;;;8.02;;
79578;SDS011;69051;52.406;5.280;2023-05-19T05:55:13;20.90;;;7.93;;
79578;SDS011;69051;52.406;5.280;2023-05-19T05:57:40;23.05;;;7.47;;
79578;SDS011;69051;52.406;5.280;2023-05-19T06:00:07;26.92;;;8.07;;
79578;SDS011;69051;52.406;5.280;2023-05-19T06:02:48;22.50;;;8.05;;
79578;SDS011;69051;52.406;5.280;2023-05-19T06:05:15;20.58;;;7.05;;
79578;SDS011;69051;52.406;5.280;2023-05-19T06:07:42;19.58;;;8.65;;
79578;SDS011;69051;52.406;5.280;2023-05-19T06:10:09;18.38;;;6.75;;
79578;SDS011;69051;52.406;5.280;2023-05-19T06:12:35;21.10;;;7.43;;
79578;SDS011;69051;52.406;5.280;2023-05-19T06:15:06;16.90;;;7.80;;
79578;SDS011;69051;52.406;5.280;2023-05-19T06:17:33;20.65;;;7.13;;
79578;SDS011;69051;52.406;5.280;2023-05-19T06:20:01;21.23;;;6.82;;
79578;SDS011;69051;52.406;5.280;2023-05-19T06:22:27;18.92;;;6.90;;
79578;SDS011;69051;52.406;5.280;2023-05-19T06:24:54;17.63;;;7.13;;
79578;SDS011;69051;52.406;5.280;2023-05-19T06:27:20;19.40;;;8.18;;
79578;SDS011;69051;52.406;5.280;2023-05-19T06:29:47;17.77;;;6.88;;
79578;SDS011;69051;52.406;5.280;2023-05-19T06:32:13;21.88;;;7.90;;
79578;SDS011;69051;52.406;5.280;2023-05-19T06:34:40;20.35;;;7.25;;
79578;SDS011;69051;52.406;5.280;2023-05-19T06:37:06;13.60;;;6.63;;
79578;SDS011;69051;52.406;5.280;2023-05-19T06:39:33;21.08;;;6.60;;
79578;SDS011;69051;52.406;5.280;2023-05-19T06:41:59;25.75;;;7.40;;
79578;SDS011;69051;52.406;5.280;2023-05-19T06:44:26;15.48;;;7.13;;
79578;SDS011;69051;52.406;5.280;2023-05-19T06:46:52;16.95;;;7.18;;
79578;SDS011;69051;52.406;5.280;2023-05-19T06:49:19;19.88;;;7.22;;
79578;SDS011;69051;52.406;5.280;2023-05-19T06:51:46;16.85;;;6.90;;
79578;SDS011;69051;52.406;5.280;2023-05-19T06:54:12;23.35;;;7.13;;
79578;SDS011;69051;52.406;5.280;2023-05-19T06:56:41;16.98;;;7.40;;
79578;SDS011;69051;52.406;5.280;2023-05-19T06:59:08;18.52;;;6.50;;
79578;SDS011;69051;52.406;5.280;2023-05-19T07:01:34;17.15;;;7.53;;
79578;SDS011;69051;52.406;5.280;2023-05-19T07:04:00;18.23;;;7.10;;
79578;SDS011;69051;52.406;5.280;2023-05-19T07:06:27;16.15;;;6.88;;
79578;SDS011;69051;52.406;5.280;2023-05-19T07:08:54;15.18;;;7.07;;
79578;SDS011;69051;52.406;5.280;2023-05-19T07:11:21;14.95;;;6.88;;
79578;SDS011;69051;52.406;5.280;2023-05-19T07:13:47;15.32;;;6.32;;
79578;SDS011;69051;52.406;5.280;2023-05-19T07:16:14;16.40;;;7.18;;
79578;SDS011;69051;52.406;5.280;2023-05-19T07:18:40;17.55;;;6.47;;
79578;SDS011;69051;52.406;5.280;2023-05-19T07:21:07;15.20;;;6.55;;
79578;SDS011;69051;52.406;5.280;2023-05-19T07:23:33;18.73;;;6.72;;
79578;SDS011;69051;52.406;5.280;2023-05-19T07:26:00;15.70;;;6.30;;
79578;SDS011;69051;52.406;5.280;2023-05-19T07:28:26;17.92;;;7.35;;
79578;SDS011;69051;52.406;5.280;2023-05-19T07:30:53;19.98;;;6.57;;
79578;SDS011;69051;52.406;5.280;2023-05-19T07:33:19;22.05;;;6.65;;
79578;SDS011;69051;52.406;5.280;2023-05-19T07:35:46;16.95;;;6.20;;
79578;SDS011;69051;52.406;5.280;2023-05-19T07:38:13;17.17;;;6.43;;
79578;SDS011;69051;52.406;5.280;2023-05-19T07:40:39;17.27;;;6.60;;
79578;SDS011;69051;52.406;5.280;2023-05-19T07:43:06;22.08;;;6.35;;
79578;SDS011;69051;52.406;5.280;2023-05-19T07:45:32;24.15;;;7.13;;
79578;SDS011;69051;52.406;5.280;2023-05-19T07:47:59;14.95;;;5.85;;
79578;SDS011;69051;52.406;5.280;2023-05-19T07:50:26;17.38;;;6.53;;
79578;SDS011;69051;52.406;5.280;2023-05-19T07:52:52;15.07;;;5.70;;
79578;SDS011;69051;52.406;5.280;2023-05-19T07:55:19;17.58;;;5.93;;
79578;SDS011;69051;52.406;5.280;2023-05-19T07:57:48;16.80;;;5.80;;
79578;SDS011;69051;52.406;5.280;2023-05-19T08:00:16;15.50;;;5.78;;
79578;SDS011;69051;52.406;5.280;2023-05-19T08:02:43;14.90;;;5.57;;
79578;SDS011;69051;52.406;5.280;2023-05-19T08:05:09;13.23;;;5.30;;
79578;SDS011;69051;52.406;5.280;2023-05-19T08:07:36;14.43;;;5.53;;
79578;SDS011;69051;52.406;5.280;2023-05-19T08:10:03;12.27;;;5.30;;
79578;SDS011;69051;52.406;5.280;2023-05-19T08:12:30;15.38;;;4.82;;
79578;SDS011;69051;52.406;5.280;2023-05-19T08:14:57;17.65;;;5.80;;
79578;SDS011;69051;52.406;5.280;2023-05-19T08:17:26;13.80;;;5.20;;
79578;SDS011;69051;52.406;5.280;2023-05-19T08:19:53;17.02;;;4.80;;
79578;SDS011;69051;52.406;5.280;2023-05-19T08:22:19;16.45;;;5.68;;
79578;SDS011;69051;52.406;5.280;2023-05-19T08:24:46;15.85;;;5.18;;
79578;SDS011;69051;52.406;5.280;2023-05-19T08:27:14;14.90;;;5.00;;
79578;SDS011;69051;52.406;5.280;2023-05-19T08:29:41;14.27;;;5.50;;
79578;SDS011;69051;52.406;5.280;2023-05-19T08:32:08;15.48;;;5.45;;
79578;SDS011;69051;52.406;5.280;2023-05-19T08:34:38;15.07;;;4.72;;
79578;SDS011;69051;52.406;5.280;2023-05-19T08:37:04;14.57;;;4.32;;
79578;SDS011;69051;52.406;5.280;2023-05-19T08:39:32;13.80;;;4.20;;
79578;SDS011;69051;52.406;5.280;2023-05-19T08:41:59;10.75;;;3.88;;
79578;SDS011;69051;52.406;5.280;2023-05-19T08:44:27;9.10;;;4.05;;
79578;SDS011;69051;52.406;5.280;2023-05-19T08:46:54;14.82;;;3.95;;
79578;SDS011;69051;52.406;5.280;2023-05-19T08:49:22;14.23;;;3.55;;
79578;SDS011;69051;52.406;5.280;2023-05-19T08:51:54;12.32;;;4.30;;
79578;SDS011;69051;52.406;5.280;2023-05-19T08:57:20;12.40;;;3.67;;
79578;SDS011;69051;52.406;5.280;2023-05-19T08:59:47;9.95;;;3.40;;
79578;SDS011;69051;52.406;5.280;2023-05-19T09:02:15;10.30;;;3.78;;
79578;SDS011;69051;52.406;5.280;2023-05-19T09:04:41;11.32;;;4.05;;
79578;SDS011;69051;52.406;5.280;2023-05-19T09:07:12;14.52;;;4.00;;
79578;SDS011;69051;52.406;5.280;2023-05-19T09:09:39;12.55;;;4.07;;
79578;SDS011;69051;52.406;5.280;2023-05-19T09:12:11;11.60;;;3.25;;
79578;SDS011;69051;52.406;5.280;2023-05-19T09:14:38;10.75;;;3.30;;
79578;SDS011;69051;52.406;5.280;2023-05-19T09:17:05;9.65;;;3.15;;
79578;SDS011;69051;52.406;5.280;2023-05-19T09:19:32;13.18;;;3.85;;
79578;SDS011;69051;52.406;5.280;2023-05-19T09:21:59;9.80;;;4.20;;
79578;SDS011;69051;52.406;5.280;2023-05-19T09:24:29;11.60;;;3.20;;
79578;SDS011;69051;52.406;5.280;2023-05-19T09:26:55;10.23;;;3.00;;
79578;SDS011;69051;52.406;5.280;2023-05-19T09:29:25;11.88;;;3.85;;
79578;SDS011;69051;52.406;5.280;2023-05-19T09:31:55;15.98;;;4.20;;
79578;SDS011;69051;52.406;5.280;2023-05-19T09:34:26;11.48;;;3.70;;
79578;SDS011;69051;52.406;5.280;2023-05-19T09:36:52;11.73;;;3.53;;
79578;SDS011;69051;52.406;5.280;2023-05-19T09:39:20;9.05;;;3.15;;
79578;SDS011;69051;52.406;5.280;2023-05-19T09:41:53;10.20;;;3.65;;
79578;SDS011;69051;52.406;5.280;2023-05-19T09:44:21;11.18;;;3.78;;
79578;SDS011;69051;52.406;5.280;2023-05-19T09:46:49;14.40;;;3.72;;
79578;SDS011;69051;52.406;5.280;2023-05-19T09:49:22;10.52;;;3.75;;
79578;SDS011;69051;52.406;5.280;2023-05-19T09:51:54;14.02;;;4.07;;
79578;SDS011;69051;52.406;5.280;2023-05-19T09:54:21;17.48;;;3.72;;
79578;SDS011;69051;52.406;5.280;2023-05-19T09:56:58;10.48;;;3.25;;
79578;SDS011;69051;52.406;5.280;2023-05-19T09:59:26;10.98;;;3.00;;
79578;SDS011;69051;52.406;5.280;2023-05-19T10:01:58;13.50;;;3.60;;
79578;SDS011;69051;52.406;5.280;2023-05-19T10:04:26;11.90;;;3.17;;
79578;SDS011;69051;52.406;5.280;2023-05-19T10:06:54;14.55;;;3.33;;
79578;SDS011;69051;52.406;5.280;2023-05-19T10:09:25;11.27;;;3.15;;
79578;SDS011;69051;52.406;5.280;2023-05-19T10:11:53;9.65;;;3.42;;
79578;SDS011;69051;52.406;5.280;2023-05-19T10:14:21;15.45;;;3.83;;
79578;SDS011;69051;52.406;5.280;2023-05-19T10:16:50;13.38;;;3.67;;
79578;SDS011;69051;52.406;5.280;2023-05-19T10:19:21;13.32;;;3.42;;
79578;SDS011;69051;52.406;5.280;2023-05-19T10:21:52;14.82;;;3.20;;
79578;SDS011;69051;52.406;5.280;2023-05-19T10:24:18;10.98;;;3.25;;
79578;SDS011;69051;52.406;5.280;2023-05-19T10:26:50;9.82;;;2.67;;
79578;SDS011;69051;52.406;5.280;2023-05-19T10:29:20;8.32;;;3.10;;
79578;SDS011;69051;52.406;5.280;2023-05-19T10:31:49;11.25;;;3.50;;
79578;SDS011;69051;52.406;5.280;2023-05-19T10:36:47;9.98;;;2.90;;
79578;SDS011;69051;52.406;5.280;2023-05-19T10:39:18;12.57;;;3.40;;
79578;SDS011;69051;52.406;5.280;2023-05-19T10:42:03;12.65;;;3.97;;
79578;SDS011;69051;52.406;5.280;2023-05-19T10:44:41;8.88;;;3.30;;
79578;SDS011;69051;52.406;5.280;2023-05-19T10:47:23;10.80;;;3.72;;
79578;SDS011;69051;52.406;5.280;2023-05-19T10:49:53;13.57;;;3.40;;
79578;SDS011;69051;52.406;5.280;2023-05-19T10:52:21;10.88;;;3.00;;
79578;SDS011;69051;52.406;5.280;2023-05-19T10:54:50;10.80;;;3.92;;
79578;SDS011;69051;52.406;5.280;2023-05-19T10:57:25;12.30;;;3.38;;
79578;SDS011;69051;52.406;5.280;2023-05-19T10:59:57;10.57;;;2.88;;
79578;SDS011;69051;52.406;5.280;2023-05-19T11:02:35;9.82;;;2.60;;
79578;SDS011;69051;52.406;5.280;2023-05-19T11:05:15;12.25;;;3.03;;
79578;SDS011;69051;52.406;5.280;2023-05-19T11:07:53;12.32;;;3.60;;
79578;SDS011;69051;52.406;5.280;2023-05-19T11:10:21;9.50;;;3.10;;
79578;SDS011;69051;52.406;5.280;2023-05-19T11:12:48;12.48;;;2.58;;
79578;SDS011;69051;52.406;5.280;2023-05-19T11:15:15;13.60;;;3.10;;
79578;SDS011;69051;52.406;5.280;2023-05-19T11:17:44;11.90;;;3.47;;
79578;SDS011;69051;52.406;5.280;2023-05-19T11:25:50;11.57;;;3.50;;
79578;SDS011;69051;52.406;5.280;2023-05-19T11:28:20;14.15;;;3.80;;
79578;SDS011;69051;52.406;5.280;2023-05-19T11:30:52;10.57;;;3.50;;
79578;SDS011;69051;52.406;5.280;2023-05-19T11:33:19;12.55;;;3.72;;
79578;SDS011;69051;52.406;5.280;2023-05-19T11:35:47;10.68;;;3.22;;
79578;SDS011;69051;52.406;5.280;2023-05-19T11:38:15;9.52;;;3.10;;
79578;SDS011;69051;52.406;5.280;2023-05-19T11:40:43;9.27;;;3.00;;
79578;SDS011;69051;52.406;5.280;2023-05-19T11:43:09;10.15;;;2.97;;
79578;SDS011;69051;52.406;5.280;2023-05-19T11:45:36;12.15;;;3.30;;
79578;SDS011;69051;52.406;5.280;2023-05-19T11:48:03;11.18;;;2.95;;
79578;SDS011;69051;52.406;5.280;2023-05-19T11:50:30;12.10;;;2.85;;
79578;SDS011;69051;52.406;5.280;2023-05-19T11:52:58;9.07;;;2.45;;
79578;SDS011;69051;52.406;5.280;2023-05-19T11:55:26;10.30;;;2.60;;
79578;SDS011;69051;52.406;5.280;2023-05-19T11:57:59;13.13;;;3.35;;
79578;SDS011;69051;52.406;5.280;2023-05-19T12:03:04;7.55;;;2.50;;
79578;SDS011;69051;52.406;5.280;2023-05-19T12:05:31;11.77;;;2.75;;
79578;SDS011;69051;52.406;5.280;2023-05-19T12:08:03;10.95;;;2.78;;
79578;SDS011;69051;52.406;5.280;2023-05-19T12:10:31;7.43;;;2.67;;
79578;SDS011;69051;52.406;5.280;2023-05-19T12:12:59;8.32;;;2.40;;
79578;SDS011;69051;52.406;5.280;2023-05-19T12:15:27;9.18;;;3.33;;
79578;SDS011;69051;52.406;5.280;2023-05-19T12:17:56;9.40;;;3.03;;
79578;SDS011;69051;52.406;5.280;2023-05-19T12:20:25;10.18;;;2.78;;
79578;SDS011;69051;52.406;5.280;2023-05-19T12:22:55;7.90;;;2.83;;
79578;SDS011;69051;52.406;5.280;2023-05-19T12:25:22;8.18;;;2.70;;
79578;SDS011;69051;52.406;5.280;2023-05-19T12:27:49;11.80;;;2.78;;
79578;SDS011;69051;52.406;5.280;2023-05-19T12:30:17;8.98;;;2.70;;
79578;SDS011;69051;52.406;5.280;2023-05-19T12:32:52;8.98;;;2.72;;
79578;SDS011;69051;52.406;5.280;2023-05-19T12:35:19;7.55;;;2.88;;
79578;SDS011;69051;52.406;5.280;2023-05-19T12:37:45;11.32;;;2.78;;
79578;SDS011;69051;52.406;5.280;2023-05-19T12:40:14;8.55;;;2.95;;
79578;SDS011;69051;52.406;5.280;2023-05-19T12:42:45;7.70;;;3.00;;
79578;SDS011;69051;52.406;5.280;2023-05-19T12:45:11;13.48;;;3.72;;
79578;SDS011;69051;52.406;5.280;2023-05-19T12:47:38;13.05;;;3.22;;
79578;SDS011;69051;52.406;5.280;2023-05-19T12:50:05;13.95;;;2.92;;
79578;SDS011;69051;52.406;5.280;2023-05-19T12:52:45;8.32;;;2.88;;
79578;SDS011;69051;52.406;5.280;2023-05-19T12:55:13;9.57;;;3.10;;
79578;SDS011;69051;52.406;5.280;2023-05-19T12:57:46;12.55;;;2.88;;
79578;SDS011;69051;52.406;5.280;2023-05-19T13:00:16;14.60;;;3.13;;
79578;SDS011;69051;52.406;5.280;2023-05-19T13:08:00;8.73;;;2.72;;
79578;SDS011;69051;52.406;5.280;2023-05-19T13:10:28;10.30;;;3.13;;
79578;SDS011;69051;52.406;5.280;2023-05-19T13:12:55;12.07;;;2.95;;
79578;SDS011;69051;52.406;5.280;2023-05-19T13:15:22;10.25;;;3.08;;
79578;SDS011;69051;52.406;5.280;2023-05-19T13:17:51;10.80;;;3.22;;
79578;SDS011;69051;52.406;5.280;2023-05-19T13:20:18;6.15;;;2.80;;
79578;SDS011;69051;52.406;5.280;2023-05-19T13:22:48;8.70;;;3.00;;
79578;SDS011;69051;52.406;5.280;2023-05-19T13:25:15;12.93;;;3.22;;
79578;SDS011;69051;52.406;5.280;2023-05-19T13:27:45;8.85;;;3.03;;
79578;SDS011;69051;52.406;5.280;2023-05-19T13:30:12;6.75;;;2.83;;
79578;SDS011;69051;52.406;5.280;2023-05-19T13:32:40;9.88;;;2.83;;
79578;SDS011;69051;52.406;5.280;2023-05-19T13:35:08;8.90;;;2.85;;
79578;SDS011;69051;52.406;5.280;2023-05-19T13:37:35;10.70;;;3.10;;
79578;SDS011;69051;52.406;5.280;2023-05-19T13:40:02;9.75;;;2.90;;
79578;SDS011;69051;52.406;5.280;2023-05-19T13:42:28;7.80;;;2.47;;
79578;SDS011;69051;52.406;5.280;2023-05-19T13:44:55;8.63;;;2.88;;
79578;SDS011;69051;52.406;5.280;2023-05-19T13:47:22;6.03;;;2.58;;
79578;SDS011;69051;52.406;5.280;2023-05-19T13:49:48;7.65;;;2.53;;
79578;SDS011;69051;52.406;5.280;2023-05-19T13:52:15;8.40;;;2.70;;
79578;SDS011;69051;52.406;5.280;2023-05-19T13:54:42;8.35;;;2.63;;
79578;SDS011;69051;52.406;5.280;2023-05-19T13:57:09;12.50;;;3.00;;
79578;SDS011;69051;52.406;5.280;2023-05-19T13:59:35;8.35;;;2.35;;
79578;SDS011;69051;52.406;5.280;2023-05-19T14:02:18;11.60;;;3.08;;
79578;SDS011;69051;52.406;5.280;2023-05-19T14:04:45;8.82;;;2.63;;
79578;SDS011;69051;52.406;5.280;2023-05-19T14:07:12;8.02;;;2.83;;
79578;SDS011;69051;52.406;5.280;2023-05-19T14:09:38;9.15;;;2.55;;
79578;SDS011;69051;52.406;5.280;2023-05-19T14:12:05;8.70;;;2.60;;
79578;SDS011;69051;52.406;5.280;2023-05-19T14:14:32;7.45;;;2.60;;
79578;SDS011;69051;52.406;5.280;2023-05-19T14:16:58;7.22;;;2.40;;
79578;SDS011;69051;52.406;5.280;2023-05-19T14:19:25;10.15;;;2.38;;
79578;SDS011;69051;52.406;5.280;2023-05-19T14:21:55;7.30;;;2.30;;
79578;SDS011;69051;52.406;5.280;2023-05-19T14:24:22;9.77;;;2.40;;
79578;SDS011;69051;52.406;5.280;2023-05-19T14:26:49;8.07;;;2.42;;
79578;SDS011;69051;52.406;5.280;2023-05-19T14:29:15;7.50;;;2.20;;
79578;SDS011;69051;52.406;5.280;2023-05-19T14:31:42;8.18;;;3.03;;
79578;SDS011;69051;52.406;5.280;2023-05-19T14:34:08;6.80;;;2.20;;
79578;SDS011;69051;52.406;5.280;2023-05-19T14:36:35;10.25;;;2.60;;
79578;SDS011;69051;52.406;5.280;2023-05-19T14:39:01;8.88;;;2.67;;
79578;SDS011;69051;52.406;5.280;2023-05-19T14:41:28;7.93;;;2.67;;
79578;SDS011;69051;52.406;5.280;2023-05-19T14:43:54;8.57;;;3.17;;
79578;SDS011;69051;52.406;5.280;2023-05-19T14:46:21;9.25;;;2.50;;
79578;SDS011;69051;52.406;5.280;2023-05-19T14:48:48;9.73;;;2.72;;
79578;SDS011;69051;52.406;5.280;2023-05-19T14:51:14;9.23;;;2.70;;
79578;SDS011;69051;52.406;5.280;2023-05-19T14:53:41;9.95;;;3.17;;
79578;SDS011;69051;52.406;5.280;2023-05-19T14:56:07;7.70;;;3.20;;
79578;SDS011;69051;52.406;5.280;2023-05-19T14:58:34;11.95;;;2.72;;
79578;SDS011;69051;52.406;5.280;2023-05-19T15:01:00;9.32;;;2.53;;
79578;SDS011;69051;52.406;5.280;2023-05-19T15:03:27;9.90;;;2.50;;
79578;SDS011;69051;52.406;5.280;2023-05-19T15:05:53;8.48;;;2.88;;
79578;SDS011;69051;52.406;5.280;2023-05-19T15:08:20;9.15;;;2.75;;
79578;SDS011;69051;52.406;5.280;2023-05-19T15:10:47;8.32;;;2.78;;
79578;SDS011;69051;52.406;5.280;2023-05-19T15:13:14;9.10;;;2.70;;